sensor_id;sensor_type;location;lat;lon;timestamp;P1;durP1;ratioP1;P2;durP2;ratioP2
76631;SDS011;65526;48.578;-4.520;2023-03-03T00:02:38;34.17;;;17.02;;
76631;SDS011;65526;48.578;-4.520;2023-03-03T00:05:04;35.05;;;16.23;;
76631;SDS011;65526;48.578;-4.520;2023-03-03T00:07:31;31.40;;;15.80;;
76631;SDS011;65526;48.578;-4.520;2023-03-03T00:09:58;36.58;;;18.20;;
76631;SDS011;65526;48.578;-4.520;2023-03-03T00:12:25;34.55;;;17.83;;
76631;SDS011;65526;48.578;-4.520;2023-03-03T00:14:53;36.72;;;17.25;;
76631;SDS011;65526;48.578;-4.520;2023-03-03T00:17:23;37.25;;;16.90;;
76631;SDS011;65526;48.578;-4.520;2023-03-03T00:19:54;41.03;;;17.08;;
76631;SDS011;65526;48.578;-4.520;2023-03-03T00:22:28;34.25;;;16.50;;
76631;SDS011;65526;48.578;-4.520;2023-03-03T00:25:20;37.20;;;17.13;;
76631;SDS011;65526;48.578;-4.520;2023-03-03T00:28:18;31.50;;;16.52;;
76631;SDS011;65526;48.578;-4.520;2023-03-03T00:30:57;33.08;;;15.93;;
76631;SDS011;65526;48.578;-4.520;2023-03-03T00:33:35;35.65;;;16.83;;
76631;SDS011;65526;48.578;-4.520;2023-03-03T00:38:40;37.28;;;17.30;;
76631;SDS011;65526;48.578;-4.520;2023-03-03T00:41:15;30.75;;;15.82;;
76631;SDS011;65526;48.578;-4.520;2023-03-03T00:43:49;35.10;;;17.55;;
76631;SDS011;65526;48.578;-4.520;2023-03-03T00:46:18;32.35;;;17.02;;
76631;SDS011;65526;48.578;-4.520;2023-03-03T00:48:49;36.35;;;16.88;;
76631;SDS011;65526;48.578;-4.520;2023-03-03T00:51:23;34.33;;;16.33;;
76631;SDS011;65526;48.578;-4.520;2023-03-03T00:53:53;34.13;;;16.63;;
76631;SDS011;65526;48.578;-4.520;2023-03-03T00:56:22;37.72;;;17.33;;
76631;SDS011;65526;48.578;-4.520;2023-03-03T00:58:49;39.53;;;17.63;;
76631;SDS011;65526;48.578;-4.520;2023-03-03T01:01:18;35.58;;;16.92;;
76631;SDS011;65526;48.578;-4.520;2023-03-03T01:03:49;36.35;;;17.25;;
76631;SDS011;65526;48.578;-4.520;2023-03-03T01:06:15;38.90;;;17.35;;
76631;SDS011;65526;48.578;-4.520;2023-03-03T01:08:42;33.42;;;16.58;;
76631;SDS011;65526;48.578;-4.520;2023-03-03T01:11:10;34.75;;;17.02;;
76631;SDS011;65526;48.578;-4.520;2023-03-03T01:13:42;35.22;;;15.65;;
76631;SDS011;65526;48.578;-4.520;2023-03-03T01:16:11;39.03;;;18.08;;
76631;SDS011;65526;48.578;-4.520;2023-03-03T01:18:38;38.50;;;17.83;;
76631;SDS011;65526;48.578;-4.520;2023-03-03T01:21:07;35.63;;;16.70;;
76631;SDS011;65526;48.578;-4.520;2023-03-03T01:23:34;30.35;;;15.85;;
76631;SDS011;65526;48.578;-4.520;2023-03-03T01:26:00;34.25;;;17.30;;
76631;SDS011;65526;48.578;-4.520;2023-03-03T01:28:27;33.22;;;16.13;;
76631;SDS011;65526;48.578;-4.520;2023-03-03T01:30:53;33.03;;;17.27;;
76631;SDS011;65526;48.578;-4.520;2023-03-03T01:33:20;35.30;;;17.08;;
76631;SDS011;65526;48.578;-4.520;2023-03-03T01:35:48;36.97;;;17.98;;
76631;SDS011;65526;48.578;-4.520;2023-03-03T01:38:14;35.03;;;16.75;;
76631;SDS011;65526;48.578;-4.520;2023-03-03T01:40:41;34.28;;;16.88;;
76631;SDS011;65526;48.578;-4.520;2023-03-03T01:43:07;40.45;;;17.52;;
76631;SDS011;65526;48.578;-4.520;2023-03-03T01:50:49;37.38;;;17.88;;
76631;SDS011;65526;48.578;-4.520;2023-03-03T01:53:26;35.42;;;16.25;;
76631;SDS011;65526;48.578;-4.520;2023-03-03T01:55:58;35.83;;;17.05;;
76631;SDS011;65526;48.578;-4.520;2023-03-03T01:58:30;35.53;;;17.08;;
76631;SDS011;65526;48.578;-4.520;2023-03-03T02:01:02;33.65;;;16.42;;
76631;SDS011;65526;48.578;-4.520;2023-03-03T02:03:38;34.75;;;16.77;;
76631;SDS011;65526;48.578;-4.520;2023-03-03T02:06:06;37.80;;;17.40;;
76631;SDS011;65526;48.578;-4.520;2023-03-03T02:08:40;35.15;;;16.65;;
76631;SDS011;65526;48.578;-4.520;2023-03-03T02:11:17;31.13;;;16.13;;
76631;SDS011;65526;48.578;-4.520;2023-03-03T02:13:45;33.08;;;16.15;;
76631;SDS011;65526;48.578;-4.520;2023-03-03T02:16:11;28.92;;;15.13;;
76631;SDS011;65526;48.578;-4.520;2023-03-03T02:18:38;32.70;;;15.80;;
76631;SDS011;65526;48.578;-4.520;2023-03-03T02:21:20;33.53;;;15.85;;
76631;SDS011;65526;48.578;-4.520;2023-03-03T02:26:28;34.95;;;15.93;;
76631;SDS011;65526;48.578;-4.520;2023-03-03T02:29:01;31.08;;;15.70;;
76631;SDS011;65526;48.578;-4.520;2023-03-03T02:31:29;32.58;;;16.83;;
76631;SDS011;65526;48.578;-4.520;2023-03-03T02:33:57;34.65;;;16.42;;
76631;SDS011;65526;48.578;-4.520;2023-03-03T02:36:25;33.40;;;15.93;;
76631;SDS011;65526;48.578;-4.520;2023-03-03T02:39:06;33.10;;;16.27;;
76631;SDS011;65526;48.578;-4.520;2023-03-03T02:44:34;32.78;;;15.88;;
76631;SDS011;65526;48.578;-4.520;2023-03-03T02:47:01;32.40;;;15.25;;
76631;SDS011;65526;48.578;-4.520;2023-03-03T02:49:29;34.60;;;16.33;;
76631;SDS011;65526;48.578;-4.520;2023-03-03T02:52:00;38.45;;;17.88;;
76631;SDS011;65526;48.578;-4.520;2023-03-03T02:54:29;35.05;;;16.10;;
76631;SDS011;65526;48.578;-4.520;2023-03-03T02:56:56;33.75;;;16.70;;
76631;SDS011;65526;48.578;-4.520;2023-03-03T02:59:25;36.95;;;16.67;;
76631;SDS011;65526;48.578;-4.520;2023-03-03T03:01:52;39.05;;;17.58;;
76631;SDS011;65526;48.578;-4.520;2023-03-03T03:04:21;35.70;;;16.42;;
76631;SDS011;65526;48.578;-4.520;2023-03-03T03:06:51;33.83;;;16.77;;
76631;SDS011;65526;48.578;-4.520;2023-03-03T03:09:18;35.50;;;16.25;;
76631;SDS011;65526;48.578;-4.520;2023-03-03T03:14:17;37.05;;;16.67;;
76631;SDS011;65526;48.578;-4.520;2023-03-03T03:16:44;34.45;;;16.02;;
76631;SDS011;65526;48.578;-4.520;2023-03-03T03:19:10;32.40;;;15.70;;
76631;SDS011;65526;48.578;-4.520;2023-03-03T03:21:38;34.55;;;16.05;;
76631;SDS011;65526;48.578;-4.520;2023-03-03T03:24:06;33.72;;;15.50;;
76631;SDS011;65526;48.578;-4.520;2023-03-03T03:26:34;34.83;;;15.98;;
76631;SDS011;65526;48.578;-4.520;2023-03-03T03:29:01;29.05;;;14.82;;
76631;SDS011;65526;48.578;-4.520;2023-03-03T03:31:27;29.92;;;14.77;;
76631;SDS011;65526;48.578;-4.520;2023-03-03T03:33:54;29.60;;;14.25;;
76631;SDS011;65526;48.578;-4.520;2023-03-03T03:36:21;33.20;;;16.02;;
76631;SDS011;65526;48.578;-4.520;2023-03-03T03:38:48;30.05;;;14.77;;
76631;SDS011;65526;48.578;-4.520;2023-03-03T03:41:16;34.42;;;16.30;;
76631;SDS011;65526;48.578;-4.520;2023-03-03T03:43:42;34.38;;;16.38;;
76631;SDS011;65526;48.578;-4.520;2023-03-03T03:46:09;38.92;;;16.58;;
76631;SDS011;65526;48.578;-4.520;2023-03-03T03:48:35;31.83;;;15.88;;
76631;SDS011;65526;48.578;-4.520;2023-03-03T03:54:07;31.48;;;15.38;;
76631;SDS011;65526;48.578;-4.520;2023-03-03T03:56:35;35.00;;;16.75;;
76631;SDS011;65526;48.578;-4.520;2023-03-03T03:59:02;32.63;;;16.08;;
76631;SDS011;65526;48.578;-4.520;2023-03-03T04:01:32;32.25;;;15.82;;
76631;SDS011;65526;48.578;-4.520;2023-03-03T04:03:58;34.08;;;16.92;;
76631;SDS011;65526;48.578;-4.520;2023-03-03T06:27:05;19.58;;;6.55;;
76631;SDS011;65526;48.578;-4.520;2023-03-03T06:29:32;14.63;;;4.97;;
76631;SDS011;65526;48.578;-4.520;2023-03-03T06:31:58;19.13;;;5.38;;
76631;SDS011;65526;48.578;-4.520;2023-03-03T06:34:25;12.63;;;4.95;;
76631;SDS011;65526;48.578;-4.520;2023-03-03T06:36:51;17.08;;;5.72;;
76631;SDS011;65526;48.578;-4.520;2023-03-03T06:39:18;11.65;;;5.50;;
76631;SDS011;65526;48.578;-4.520;2023-03-03T06:41:44;20.23;;;4.95;;
76631;SDS011;65526;48.578;-4.520;2023-03-03T06:44:10;12.70;;;5.63;;
76631;SDS011;65526;48.578;-4.520;2023-03-03T07:24:29;7.43;;;3.67;;
76631;SDS011;65526;48.578;-4.520;2023-03-03T07:27:05;8.38;;;3.90;;
76631;SDS011;65526;48.578;-4.520;2023-03-03T07:29:49;6.53;;;3.28;;
76631;SDS011;65526;48.578;-4.520;2023-03-03T07:35:03;8.90;;;3.42;;
76631;SDS011;65526;48.578;-4.520;2023-03-03T07:37:54;9.52;;;3.35;;
76631;SDS011;65526;48.578;-4.520;2023-03-03T07:42:59;6.45;;;3.60;;
76631;SDS011;65526;48.578;-4.520;2023-03-03T07:48:15;12.35;;;2.58;;
76631;SDS011;65526;48.578;-4.520;2023-03-03T07:50:59;11.25;;;2.47;;
76631;SDS011;65526;48.578;-4.520;2023-03-03T07:53:33;4.85;;;1.92;;
76631;SDS011;65526;48.578;-4.520;2023-03-03T07:56:01;5.05;;;2.08;;
76631;SDS011;65526;48.578;-4.520;2023-03-03T07:58:43;5.90;;;2.03;;
76631;SDS011;65526;48.578;-4.520;2023-03-03T08:04:10;7.20;;;2.30;;
76631;SDS011;65526;48.578;-4.520;2023-03-03T08:06:43;3.70;;;1.80;;
76631;SDS011;65526;48.578;-4.520;2023-03-03T08:14:43;6.53;;;2.17;;
76631;SDS011;65526;48.578;-4.520;2023-03-03T08:17:18;3.80;;;1.30;;
76631;SDS011;65526;48.578;-4.520;2023-03-03T08:19:47;4.78;;;1.60;;
76631;SDS011;65526;48.578;-4.520;2023-03-03T08:22:17;13.57;;;2.95;;
76631;SDS011;65526;48.578;-4.520;2023-03-03T08:55:00;3.53;;;1.23;;
76631;SDS011;65526;48.578;-4.520;2023-03-03T08:57:27;10.07;;;2.55;;
76631;SDS011;65526;48.578;-4.520;2023-03-03T08:59:53;4.85;;;1.60;;
76631;SDS011;65526;48.578;-4.520;2023-03-03T09:02:20;4.95;;;1.55;;
76631;SDS011;65526;48.578;-4.520;2023-03-03T09:04:46;7.50;;;1.88;;
76631;SDS011;65526;48.578;-4.520;2023-03-03T09:07:13;13.27;;;1.95;;
76631;SDS011;65526;48.578;-4.520;2023-03-03T09:09:39;4.72;;;1.67;;
76631;SDS011;65526;48.578;-4.520;2023-03-03T09:12:14;15.95;;;2.25;;
76631;SDS011;65526;48.578;-4.520;2023-03-03T09:14:52;5.70;;;1.55;;
76631;SDS011;65526;48.578;-4.520;2023-03-03T09:19:58;2.50;;;1.40;;
76631;SDS011;65526;48.578;-4.520;2023-03-03T09:22:32;10.43;;;1.58;;
76631;SDS011;65526;48.578;-4.520;2023-03-03T09:25:01;5.00;;;1.48;;
76631;SDS011;65526;48.578;-4.520;2023-03-03T09:27:39;8.32;;;1.92;;
76631;SDS011;65526;48.578;-4.520;2023-03-03T09:33:15;6.00;;;2.30;;
76631;SDS011;65526;48.578;-4.520;2023-03-03T09:35:49;5.45;;;2.05;;
76631;SDS011;65526;48.578;-4.520;2023-03-03T09:41:10;4.32;;;1.70;;
76631;SDS011;65526;48.578;-4.520;2023-03-03T09:49:56;7.05;;;1.90;;
76631;SDS011;65526;48.578;-4.520;2023-03-03T09:58:08;4.78;;;1.92;;
76631;SDS011;65526;48.578;-4.520;2023-03-03T10:07:05;8.45;;;2.05;;
76631;SDS011;65526;48.578;-4.520;2023-03-03T10:12:47;7.32;;;2.15;;
76631;SDS011;65526;48.578;-4.520;2023-03-03T10:21:10;2.63;;;1.35;;
76631;SDS011;65526;48.578;-4.520;2023-03-03T10:51:24;5.22;;;1.63;;
76631;SDS011;65526;48.578;-4.520;2023-03-03T11:00:36;8.27;;;1.80;;
76631;SDS011;65526;48.578;-4.520;2023-03-03T11:11:34;10.02;;;2.03;;
76631;SDS011;65526;48.578;-4.520;2023-03-03T11:14:29;6.70;;;1.88;;
76631;SDS011;65526;48.578;-4.520;2023-03-03T11:17:04;5.70;;;1.27;;
76631;SDS011;65526;48.578;-4.520;2023-03-03T11:19:54;5.75;;;1.50;;
76631;SDS011;65526;48.578;-4.520;2023-03-03T11:30:58;11.35;;;2.08;;
76631;SDS011;65526;48.578;-4.520;2023-03-03T11:33:35;9.88;;;1.98;;
76631;SDS011;65526;48.578;-4.520;2023-03-03T11:36:38;7.60;;;1.70;;
76631;SDS011;65526;48.578;-4.520;2023-03-03T11:39:45;6.78;;;1.60;;
76631;SDS011;65526;48.578;-4.520;2023-03-03T11:44:59;3.67;;;1.85;;
76631;SDS011;65526;48.578;-4.520;2023-03-03T11:50:30;5.45;;;1.95;;
76631;SDS011;65526;48.578;-4.520;2023-03-03T11:53:24;2.72;;;1.30;;
76631;SDS011;65526;48.578;-4.520;2023-03-03T11:56:01;6.28;;;1.48;;
76631;SDS011;65526;48.578;-4.520;2023-03-03T11:58:58;3.10;;;1.30;;
76631;SDS011;65526;48.578;-4.520;2023-03-03T16:44:35;3.00;;;0.90;;
76631;SDS011;65526;48.578;-4.520;2023-03-03T22:58:16;7.65;;;1.38;;
76631;SDS011;65526;48.578;-4.520;2023-03-03T23:00:46;3.60;;;1.30;;
76631;SDS011;65526;48.578;-4.520;2023-03-03T23:03:14;5.45;;;1.60;;
76631;SDS011;65526;48.578;-4.520;2023-03-03T23:05:40;6.47;;;1.45;;
76631;SDS011;65526;48.578;-4.520;2023-03-03T23:08:09;8.02;;;1.30;;
76631;SDS011;65526;48.578;-4.520;2023-03-03T23:10:38;6.90;;;1.33;;
76631;SDS011;65526;48.578;-4.520;2023-03-03T23:13:04;6.28;;;1.77;;
76631;SDS011;65526;48.578;-4.520;2023-03-03T23:15:31;2.63;;;1.55;;
76631;SDS011;65526;48.578;-4.520;2023-03-03T23:17:58;5.45;;;1.50;;
76631;SDS011;65526;48.578;-4.520;2023-03-03T23:20:26;6.90;;;1.30;;
76631;SDS011;65526;48.578;-4.520;2023-03-03T23:22:53;4.22;;;0.95;;
76631;SDS011;65526;48.578;-4.520;2023-03-03T23:25:20;3.67;;;1.17;;
76631;SDS011;65526;48.578;-4.520;2023-03-03T23:27:50;4.78;;;0.90;;
76631;SDS011;65526;48.578;-4.520;2023-03-03T23:30:18;3.20;;;1.15;;
76631;SDS011;65526;48.578;-4.520;2023-03-03T23:32:47;2.75;;;1.63;;
76631;SDS011;65526;48.578;-4.520;2023-03-03T23:35:15;4.00;;;1.15;;
76631;SDS011;65526;48.578;-4.520;2023-03-03T23:37:42;3.65;;;1.02;;
76631;SDS011;65526;48.578;-4.520;2023-03-03T23:40:09;4.50;;;1.17;;
76631;SDS011;65526;48.578;-4.520;2023-03-03T23:42:36;5.03;;;1.25;;
76631;SDS011;65526;48.578;-4.520;2023-03-03T23:45:03;8.25;;;1.15;;
76631;SDS011;65526;48.578;-4.520;2023-03-03T23:47:29;2.55;;;1.05;;
76631;SDS011;65526;48.578;-4.520;2023-03-03T23:49:56;6.07;;;1.60;;
76631;SDS011;65526;48.578;-4.520;2023-03-03T23:52:22;4.00;;;1.83;;
76631;SDS011;65526;48.578;-4.520;2023-03-03T23:54:49;4.85;;;1.48;;
76631;SDS011;65526;48.578;-4.520;2023-03-03T23:57:15;3.03;;;1.08;;
76631;SDS011;65526;48.578;-4.520;2023-03-03T23:59:41;11.30;;;1.45;;
